• Join FlightAware (Why Join?)
  • Login
  • US Flag 
07:16PM EDT


 

Airport Tracker/Info


-or-


 

Live Flight TrackerFlight Track Log ✈ SWA1046 ✈ 26-Apr-2013 ✈ KMDW - KRSW

Flight Track Log - Related Links

Times and Time Zones

All times are in EDT time to prevent confusion due to time zone crossing. See the SWA1046 flight status page for this flight to view local times or setup timezone preferences in your user account.

Time Position Orientation Groundspeed Altitude Reporting Facility
EDT Latitude Longitude Course Direction KTS MPH feet Rate Location/Type
08:44PM 41.7667 -87.7667 211° Southwest 152 175 2,100  Level Chicago TRACON
08:46PM 41.6869 -87.8319 211° Southwest 232 267 6,800 3,120 Climbing Chicago Center
08:47PM 41.6169 -87.8431 187° South 253 291 10,500 2,640 Climbing Chicago Center
08:48PM 41.5292 -87.8578 187° South 323 372 12,300 2,520 Climbing Chicago Center
08:49PM 41.4294 -87.8753 187° South 354 407 15,800 2,940 Climbing Chicago Center
08:50PM 41.3244 -87.8856 184° South 369 425 18,400 2,700 Climbing Chicago Center
08:51PM 41.1911 -87.8914 182° South 393 452 21,400 2,220 Climbing Chicago Center
08:52PM 41.0742 -87.8875 179° South 413 475 23,000 720 Climbing Chicago Center
08:53PM 40.9569 -87.8831 178° South 421 484 23,000 900 Level Chicago Center
08:54PM 40.8394 -87.8794 179° South 424 488 24,900 1,800 Climbing Chicago Center
08:55PM 40.7197 -87.8750 178° South 430 495 26,800 2,040 Climbing Chicago Center
08:56PM 40.5694 -87.8708 179° South 451 519 29,200 2,160 Climbing Chicago Center
08:57PM 40.4456 -87.8678 179° South 448 516 31,300 2,220 Climbing Chicago Center
08:58PM 40.3611 -87.8669 180° South 446 513 33,200 2,160 Climbing Indianapolis Center
08:59PM 40.2442 -87.8608 178° South 429 494 35,200 1,560 Climbing Indianapolis Center
09:00PM 40.1292 -87.8556 178° South 418 481 36,400 900 Climbing Indianapolis Center
09:01PM 40.0086 -87.8508 178° South 424 488 37,100 780 Climbing Indianapolis Center
09:02PM 39.8642 -87.8450 178° South 436 502 38,000 900 Climbing Indianapolis Center
09:03PM 39.7392 -87.8397 178° South 444 511 39,000 480 Climbing Indianapolis Center
09:04PM 39.6147 -87.8333 178° South 446 513 39,000  Level Indianapolis Center
09:05PM 39.4894 -87.8292 179° South 448 516 39,000  Level Indianapolis Center
09:06PM 39.3569 -87.8219 178° South 447 514 39,000  Level Indianapolis Center
09:07PM 39.2317 -87.8167 178° South 449 517 39,000  Level Indianapolis Center
09:08PM 39.1081 -87.8114 178° South 445 512 39,000  Level Indianapolis Center
09:09PM 38.9844 -87.7961 175° South 449 517 39,000  Level Indianapolis Center
09:10PM 38.8619 -87.7472 163° South 460 529 39,000  Level Indianapolis Center
09:11PM 38.7394 -87.6983 163° South 461 531 39,000  Level Indianapolis Center
09:12PM 38.6161 -87.6483 162° South 464 534 39,000  Level Indianapolis Center
09:13PM 38.4933 -87.5986 162° South 464 534 39,000  Level Indianapolis Center
09:14PM 38.3706 -87.5503 163° South 463 533 39,000  Level Indianapolis Center
09:15PM 38.2478 -87.5014 163° South 464 534 39,000  Level Indianapolis Center
09:16PM 38.1000 -87.4425 163° South 467 537 39,000  Level Indianapolis Center
09:17PM 37.9767 -87.3942 163° South 467 537 39,000  Level Indianapolis Center
09:18PM 37.8544 -87.3453 162° South 462 532 39,000  Level Indianapolis Center
09:19PM 37.7347 -87.2975 162° South 451 519 39,000  Level Indianapolis Center
09:20PM 37.6136 -87.2506 163° South 450 518 39,000  Level Indianapolis Center
09:21PM 37.5758 -87.2381 165° South 454 522 39,000  Level Memphis Center
09:22PM 37.4456 -87.1858 162° South 454 522 39,000  Level Memphis Center
09:23PM 37.3256 -87.1383 163° South 448 516 39,000  Level Memphis Center
09:24PM 37.2078 -87.0936 163° South 443 510 39,000  Level Memphis Center
09:25PM 37.0939 -87.0489 163° South 443 510 39,000  Level Memphis Center
09:26PM 36.9742 -87.0047 164° South 443 510 39,000  Level Memphis Center
09:27PM 36.8561 -86.9578 162° South 443 510 39,000  Level Memphis Center
09:28PM 36.7381 -86.9108 162° South 448 516 39,000  Level Memphis Center
09:29PM 36.6181 -86.8669 164° South 443 510 39,000  Level Memphis Center
09:30PM 36.5128 -86.8250 162° South 443 510 39,000  Level Memphis Center
09:31PM 36.3883 -86.7814 164° South 449 517 39,000  Level Memphis Center
09:32PM 36.2597 -86.7303 162° South 449 517 39,000  Level Memphis Center
09:33PM 36.1397 -86.6869 164° South 444 511 39,000  Level Memphis Center
09:34PM 36.0297 -86.6328 158° South 439 505 39,000  Level Memphis Center
09:36PM 35.8183 -86.5281 158° South 448 516 39,000  Level Atlanta Center
09:37PM 35.7047 -86.4733 159° South 448 516 39,000  Level Atlanta Center
09:38PM 35.5869 -86.4136 158° South 448 516 39,000  Level Atlanta Center
09:39PM 35.4544 -86.3511 159° South 454 522 39,000  Level Atlanta Center
09:40PM 35.3389 -86.2919 157° South 454 522 39,000  Level Atlanta Center
09:41PM 35.2167 -86.2353 159° South 460 529 39,000  Level Atlanta Center
09:42PM 35.1011 -86.1739 157° South 460 529 39,000  Level Atlanta Center
09:43PM 34.9872 -86.1228 160° South 460 529 39,000  Level Atlanta Center
09:44PM 34.8547 -86.0536 157° South 469 540 39,000  Level Atlanta Center
09:45PM 34.7306 -85.9950 159° South 469 540 39,000  Level Atlanta Center
09:46PM 34.6042 -85.9339 158° South 474 545 39,000  Level Atlanta Center
09:47PM 34.4964 -85.8836 159° South 474 545 39,000  Level Atlanta Center
09:48PM 34.3700 -85.8231 158° South 474 545 39,000  Level Atlanta Center
09:49PM 34.2372 -85.7625 159° South 468 539 39,000  Level Atlanta Center
09:50PM 34.1106 -85.7047 159° South 473 544 39,000  Level Atlanta Center
09:51PM 33.9883 -85.6472 159° South 473 544 39,000  Level Atlanta Center
09:52PM 33.8639 -85.5872 158° South 468 539 39,000  Level Atlanta Center
09:53PM 33.7433 -85.5328 159° South 473 544 39,000  Level Atlanta Center
09:54PM 33.6147 -85.4731 159° South 468 539 39,000  Level Atlanta Center
09:55PM 33.4881 -85.4139 159° South 473 544 39,000  Level Atlanta Center
09:56PM 33.3636 -85.3544 158° South 478 550 39,000  Level Atlanta Center
09:57PM 33.2369 -85.2956 159° South 491 565 39,000  Level Atlanta Center
09:58PM 33.1206 -85.2442 160° South 491 565 39,000  Level Atlanta Center
09:59PM 32.9875 -85.1831 159° South 484 557 39,000  Level Atlanta Center
10:00PM 32.8647 -85.1467 166° South 484 557 39,000  Level Atlanta Center
10:01PM 32.7294 -85.0956 162° South 478 550 39,000  Level Atlanta Center
10:02PM 32.6044 -85.0522 164° South 473 544 39,000  Level Atlanta Center
10:03PM 32.4714 -85.0064 164° South 473 544 39,000  Level Atlanta Center
10:04PM 32.3400 -84.9631 164° South 473 544 39,000  Level Atlanta Center
10:06PM 32.1050 -84.8842 164° South 468 539 39,000  Level Jacksonville Center
10:07PM 31.9761 -84.8397 164° South 474 545 39,000  Level Jacksonville Center
10:08PM 31.8472 -84.8028 166° South 474 545 39,000  Level Jacksonville Center
10:09PM 31.7228 -84.7611 164° South 474 545 39,000  Level Jacksonville Center
10:10PM 31.5939 -84.7169 164° South 474 545 39,000  Level Jacksonville Center
10:11PM 31.4650 -84.6731 164° South 474 545 39,000  Level Jacksonville Center
10:12PM 31.3406 -84.6172 159° South 474 545 39,000  Level Jacksonville Center
10:13PM 31.2142 -84.5469 155° Southeast 483 556 39,000  Level Jacksonville Center
10:14PM 31.0917 -84.4817 155° Southeast 488 562 39,000  Level Jacksonville Center
10:15PM 30.9694 -84.4167 155° Southeast 488 562 39,000  Level Jacksonville Center
10:16PM 30.8469 -84.3517 156° South 493 567 39,000  Level Jacksonville Center
10:17PM 30.7225 -84.2869 156° South 493 567 39,000  Level Jacksonville Center
10:18PM 30.6000 -84.2175 154° Southeast 493 567 39,000  Level Jacksonville Center
10:19PM 30.4669 -84.1483 156° South 486 559 39,000  Level Jacksonville Center
10:20PM 30.3444 -84.0864 156° South 480 552 39,000  Level Jacksonville Center
10:21PM 30.2239 -84.0225 155° Southeast 480 552 39,000  Level Jacksonville Center
10:22PM 30.1033 -83.9561 155° Southeast 480 552 39,000  Level Jacksonville Center
10:23PM 29.9808 -83.8950 157° South 480 552 39,000  Level Jacksonville Center
10:24PM 29.8600 -83.8314 155° Southeast 480 552 39,000  Level Jacksonville Center
10:25PM 29.7375 -83.7681 156° South 480 552 39,000  Level Jacksonville Center
10:26PM 29.6147 -83.7047 156° South 480 552 39,000  Level Jacksonville Center
10:27PM 29.4939 -83.6417 156° South 480 552 39,000  Level Jacksonville Center
10:28PM 29.3711 -83.5789 156° South 480 552 39,000  Level Jacksonville Center
10:29PM 29.2483 -83.5161 156° South 480 552 39,000  Level Jacksonville Center
10:30PM 29.1275 -83.4511 155° Southeast 480 552 39,000  Level Jacksonville Center
10:31PM 29.0067 -83.3911 157° South 480 552 39,000  Level Jacksonville Center
10:32PM 28.8839 -83.3289 156° South 480 552 39,000  Level Jacksonville Center
10:33PM 28.7650 -83.2692 156° South 480 552 39,000 -480 Level Jacksonville Center
10:34PM 28.6419 -83.2047 155° Southeast 480 552 38,100 -1,740 Descending Jacksonville Center
10:35PM 28.5233 -83.1453 156° South 480 552 35,600 -2,760 Descending Jacksonville Center
10:36PM 28.4044 -83.0861 156° South 480 552 32,600 -2,700 Descending Jacksonville Center
10:37PM 28.2606 -83.0122 156° South 473 544 29,800 -2,280 Descending Miami Center
10:38PM 28.1461 -82.9567 157° South 467 537 27,600 -1,440 Descending Miami Center
10:39PM 28.0358 -82.8989 155° Southeast 448 516 27,000 -360 Descending Miami Center
10:40PM 27.9336 -82.8489 157° South 448 516 27,000  Level Miami Center
10:41PM 27.8172 -82.7911 156° South 448 516 27,000  Level Miami Center
10:42PM 27.7008 -82.7311 155° Southeast 443 510 27,000 -660 Level Miami Center
10:43PM 27.6028 -82.6817 156° South 434 499 25,800 -1,680 Descending Miami Center
10:44PM 27.4964 -82.6269 155° Southeast 427 491 23,700 -2,220 Descending Miami Center
10:45PM 27.3817 -82.5700 156° South 421 484 21,400 -2,160 Descending Miami Center
10:46PM 27.2794 -82.5206 157° South 401 461 19,400 -1,740 Descending Miami Center
10:47PM 27.1953 -82.4814 158° South 387 445 17,900 -1,860 Descending Miami Center
10:48PM 27.1011 -82.4347 156° South 376 433 15,800 -2,100 Descending Miami Center
10:49PM 27.0089 -82.3908 157° South 369 425 13,700 -1,860 Descending Miami Center
10:50PM 26.9228 -82.3494 157° South 363 418 12,100 -1,740 Descending Miami Center
10:51PM 26.8436 -82.2944 148° Southeast 342 394 10,300 -1,380 Descending Miami Center
10:52PM 26.7811 -82.2333 139° Southeast 319 367 9,300 -1,320 Descending Miami Center
10:53PM 26.7208 -82.1725 138° Southeast 306 352 7,700 -1,740 Descending Miami Center
10:54PM 26.6625 -82.1119 137° Southeast 290 334 5,900 -1,620 Descending Miami Center
10:55PM 26.6061 -82.0536 137° Southeast 279 321 4,500 -1,380 Descending Miami Center
10:56PM 26.5494 -82.0000 140° Southeast 279 321 3,300 -960 Descending Miami Center
10:57PM 26.5008 -81.9561 141° Southeast 257 296 2,600 -720 Descending Miami Center
10:59PM 26.5055 -81.7871 50° Northeast  Level FlightAware Approximate
11:06PM 26.5333 -81.7500 50° Northeast  Level FlightAware Approximate
11:07PM 26.5362 -81.7552 50° Northeast  Level Estimated
11:08PM 26.5333 -81.7500 50° Northeast  Level FlightAware Approximate
11:09PM 26.5362 -81.7552 50° Northeast  Level Estimated
11:10PM 26.5333 -81.7500 50° Northeast  Level FlightAware Approximate